Ryoka Maru No.103 — JG5593 — position and weather

sailwx.info

Track history (hours):
 
Tides and Currents Weather Stations Pressure Air Temp Water Temp Dewpoint Dewpoint Depression Visibility Wind Speed Wind Dir Waves Ship Positions

Ryoka Maru No.103

Last reported at 2017-Dec-11 10:47 UTC. Time now 2017-Dec-12 22:00 UTC.
Position N 33°47' E 135°05'.

Length 69 m; draft 4.5 m.

Type: Tanker. MMSI: 431401796.

Date/timePositionNaut miles runAvg speedWind from/ knotsBaromVisibWave heightAir tempDewpointWater temp
2017-Dec-11 10:47N 33°47' E 135°05'613.8
2017-Dec-11 10:22N 33°51' E 135°00'613.9
2017-Dec-11 09:57N 33°55' E 134°56'713.5
2017-Dec-11 09:28N 34°00' E 134°51'613.6
2017-Dec-11 09:00N 34°06' E 134°46'814.0
2017-Dec-11 08:27N 34°12' E 134°41'714.2
2017-Dec-11 07:59N 34°17' E 134°35'713.6
2017-Dec-11 07:27N 34°19' E 134°27'613.5
2017-Dec-11 07:00N 34°21' E 134°20'712.9
2017-Dec-11 06:26N 34°24' E 134°12'8 0.3
2017-Dec-10 00:41N 34°27' E 134°03'1713.3
2017-Dec-09 23:24N 34°22' E 134°23'713.0
2017-Dec-09 22:52N 34°19' E 134°31'513.0
2017-Dec-09 22:30N 34°17' E 134°36'612.1
2017-Dec-09 22:01N 34°13' E 134°41'611.7
2017-Dec-09 21:30N 34°08' E 134°45'612.7
2017-Dec-09 21:00N 34°03' E 134°49'612.8
2017-Dec-09 20:30N 33°57' E 134°54'613.1
2017-Dec-09 20:01N 33°52' E 134°58'104 9.1
2017-Dec-09 08:35N 34°39' E 136°52'113.3
2017-Dec-09 08:30N 34°39' E 136°51'713.6
2017-Dec-09 08:00N 34°45' E 136°47'713.7
2017-Dec-09 07:30N 34°52' E 136°43'612.1
2017-Dec-09 07:01N 34°57' E 136°40'1 2.3
2017-Dec-09 06:30N 34°57' E 136°38'0 0.0
2017-Dec-09 06:01N 34°57' E 136°38'0 0.0
2017-Dec-09 05:30N 34°57' E 136°38'0 0.0
2017-Dec-09 05:00N 34°57' E 136°38'0 0.0
2017-Dec-09 04:31N 34°57' E 136°38'0 0.1
2017-Dec-09 04:00N 34°57' E 136°38'1 2.5
2017-Dec-09 03:31N 34°57' E 136°40'1 1.2
2017-Dec-09 02:58N 34°57' E 136°40'0 0.0
2017-Dec-09 02:25N 34°57' E 136°40'0 0.0
2017-Dec-09 01:58N 34°57' E 136°40'0 0.0
2017-Dec-09 01:28N 34°57' E 136°40'0 0.0
2017-Dec-09 00:58N 34°57' E 136°40'0 0.1
2017-Dec-09 00:28N 34°57' E 136°40'0 0.0
2017-Dec-08 23:58N 34°57' E 136°40'0 0.0
2017-Dec-08 23:28N 34°57' E 136°40'0 0.0
2017-Dec-08 22:58N 34°57' E 136°40'0 0.0
2017-Dec-08 22:28N 34°57' E 136°40'0 0.0
2017-Dec-08 21:58N 34°57' E 136°40'0 0.0
2017-Dec-08 21:28N 34°57' E 136°40'0 0.0
2017-Dec-08 20:58N 34°57' E 136°40'1 1.4
2017-Dec-08 20:30N 34°57' E 136°41'612.5
2017-Dec-08 20:00N 34°51' E 136°45'613.0
2017-Dec-08 19:30N 34°45' E 136°48'612.5
2017-Dec-08 19:00N 34°40' E 136°52'1811.6
2017-Dec-08 17:29N 34°32' E 137°11'812.8
2017-Dec-08 16:50N 34°32' E 137°21'4012.6
2017-Dec-08 13:39N 34°33' E 138°10'411.9
2017-Dec-08 13:16N 34°33' E 138°16'411.6
2017-Dec-08 12:55N 34°33' E 138°21'1110.8
2017-Dec-08 11:54N 34°34' E 138°34'4 9.9
2017-Dec-08 11:28N 34°34' E 138°39'610.9
2017-Dec-08 10:57N 34°35' E 138°46'511.5
2017-Dec-08 10:30N 34°35' E 138°52'612.1
2017-Dec-08 09:59N 34°37' E 138°59'713.8
2017-Dec-08 09:30N 34°43' E 139°04'714.0
2017-Dec-08 09:00N 34°48' E 139°09'813.2
2017-Dec-08 08:22N 34°54' E 139°16'812.5
2017-Dec-08 07:46N 34°58' E 139°24'311.7
2017-Dec-08 07:30N 35°00' E 139°27'611.4
2017-Dec-08 07:00N 35°03' E 139°33'612.9
2017-Dec-08 06:31N 35°06' E 139°40'713.0
2017-Dec-08 06:00N 35°11' E 139°45'612.2
2017-Dec-08 05:30N 35°17' E 139°45'612.6
2017-Dec-08 05:00N 35°23' E 139°42'612.6
2017-Dec-08 04:30N 35°27' E 139°48'912.9
2017-Dec-08 03:50N 35°32' E 139°57'411.6
2017-Dec-08 03:30N 35°32' E 140°02'1 3.0
2017-Dec-08 03:00N 35°32' E 140°03'0 0.0
2017-Dec-08 02:30N 35°32' E 140°03'0 0.0
2017-Dec-08 02:00N 35°32' E 140°03'0 0.0
2017-Dec-08 01:30N 35°32' E 140°03'0 0.0
2017-Dec-08 01:01N 35°32' E 140°03'0 0.0
2017-Dec-08 00:30N 35°32' E 140°03'0 0.0
2017-Dec-08 00:00N 35°32' E 140°03'1 2.9
2017-Dec-07 23:30N 35°32' E 140°02'3 6.8
2017-Dec-07 23:00N 35°31' E 139°58'4 8.1
2017-Dec-07 22:31N 35°28' E 139°54'0 0.1
2017-Dec-07 22:00N 35°28' E 139°54'0 0.0
2017-Dec-07 21:30N 35°28' E 139°54'0 0.0
2017-Dec-07 21:00N 35°28' E 139°54'0 0.0
2017-Dec-07 20:30N 35°28' E 139°54'0 0.0
2017-Dec-07 20:00N 35°28' E 139°54'0 0.3
2017-Dec-07 19:31N 35°28' E 139°54'510.1
2017-Dec-07 19:01N 35°26' E 139°49'612.7
2017-Dec-07 18:31N 35°21' E 139°45'612.3
2017-Dec-07 18:00N 35°15' E 139°47'612.8
2017-Dec-07 17:30N 35°08' E 139°45'612.6
2017-Dec-07 17:00N 35°03' E 139°42'713.9
2017-Dec-07 16:30N 34°58' E 139°35'815.0
2017-Dec-07 15:58N 34°54' E 139°27'815.8
2017-Dec-07 15:28N 34°49' E 139°19'715.2
2017-Dec-07 14:59N 34°45' E 139°12'714.7
2017-Dec-07 14:31N 34°41' E 139°05'714.1
2017-Dec-07 14:00N 34°37' E 138°58'815.0
2017-Dec-07 13:30N 34°34' E 138°49'814.7
2017-Dec-07 12:57N 34°34' E 138°40'714.6
2017-Dec-07 12:28N 34°33' E 138°31'914.1
2017-Dec-07 11:50N 34°33' E 138°20'2413.6
2017-Dec-07 10:05N 34°32' E 137°51'2813.4
2017-Dec-07 07:58N 34°32' E 137°17'2012.3
2017-Dec-07 06:22N 34°38' E 136°54'513.3
2017-Dec-07 06:00N 34°41' E 136°50'713.6
2017-Dec-07 05:30N 34°47' E 136°46'713.3
2017-Dec-07 05:00N 34°53' E 136°42'5 9.8
2017-Dec-07 04:30N 34°57' E 136°39'0 0.7
2017-Dec-07 04:00N 34°57' E 136°38'0 0.0
2017-Dec-07 03:30N 34°57' E 136°38'0 0.0
2017-Dec-07 03:00N 34°57' E 136°38'0 0.1
2017-Dec-07 02:30N 34°57' E 136°38'0 0.1
2017-Dec-07 02:00N 34°57' E 136°38'1 1.8
2017-Dec-07 01:30N 34°57' E 136°39'1 1.5
2017-Dec-07 01:00N 34°57' E 136°40'0 0.0
2017-Dec-07 00:29N 34°57' E 136°40'0 0.0
2017-Dec-06 23:59N 34°57' E 136°40'0 0.1
2017-Dec-06 23:30N 34°57' E 136°40'4 7.3
2017-Dec-06 23:00N 34°54' E 136°42'713.2
2017-Dec-06 22:30N 34°48' E 136°45'712.9
2017-Dec-06 22:00N 34°42' E 136°49'912.8
2017-Dec-06 21:17N 34°36' E 136°58'514.6
2017-Dec-06 20:59N 34°33' E 137°01'  
2017-Dec-04 05:36N 34°37' E 136°54'213.0
2017-Dec-04 05:25N 34°39' E 136°52'512.8
2017-Dec-04 05:00N 34°43' E 136°48'713.4
2017-Dec-04 04:31N 34°49' E 136°45'613.0
2017-Dec-04 04:01N 34°55' E 136°41'3 6.1
2017-Dec-04 03:31N 34°57' E 136°38'0 0.1
2017-Dec-04 03:01N 34°57' E 136°38'0 0.1
2017-Dec-04 02:30N 34°57' E 136°38'0 0.0
2017-Dec-04 02:00N 34°57' E 136°38'0 0.1
2017-Dec-04 01:30N 34°57' E 136°38'0 0.1
2017-Dec-04 01:01N 34°57' E 136°38'0 0.0
2017-Dec-04 00:30N 34°57' E 136°38'0 0.3
2017-Dec-04 00:00N 34°57' E 136°38'2 3.2
2017-Dec-03 23:31N 34°57' E 136°40'0 0.0
2017-Dec-03 23:01N 34°57' E 136°40'0 0.0
2017-Dec-03 22:30N 34°57' E 136°40'0 0.0
2017-Dec-03 22:00N 34°57' E 136°40'0 0.0
2017-Dec-03 21:30N 34°57' E 136°40'0 0.0
2017-Dec-03 21:00N 34°57' E 136°40'0 0.0
2017-Dec-03 20:30N 34°57' E 136°40'0 0.0
2017-Dec-03 20:00N 34°57' E 136°40'0 0.0
2017-Dec-03 19:30N 34°57' E 136°40'0 0.0
2017-Dec-03 19:00N 34°57' E 136°40'0 0.0
2017-Dec-03 18:30N 34°57' E 136°40'0 0.0
2017-Dec-03 18:00N 34°57' E 136°40'0 0.0
2017-Dec-03 17:30N 34°57' E 136°40'0 0.0
2017-Dec-03 17:00N 34°57' E 136°40'0 0.0
2017-Dec-03 16:30N 34°57' E 136°40'0 0.0
2017-Dec-03 16:00N 34°57' E 136°40'0 0.0
2017-Dec-03 15:30N 34°57' E 136°40'0 0.1
2017-Dec-03 15:00N 34°57' E 136°40'0 0.0
2017-Dec-03 14:30N 34°57' E 136°40'0 0.0
2017-Dec-03 14:00N 34°57' E 136°40'0 0.0
2017-Dec-03 13:30N 34°57' E 136°40'0 0.0
2017-Dec-03 13:00N 34°57' E 136°40'0 0.0
2017-Dec-03 12:30N 34°57' E 136°40'0 0.0
2017-Dec-03 12:00N 34°57' E 136°40'0 0.0
2017-Dec-03 11:27N 34°57' E 136°40'0 0.0
2017-Dec-03 11:00N 34°57' E 136°40'0 0.0
2017-Dec-03 10:30N 34°57' E 136°40'0 0.0
2017-Dec-03 10:00N 34°57' E 136°40'0 0.0
2017-Dec-03 09:30N 34°57' E 136°40'0 0.0
2017-Dec-03 09:00N 34°57' E 136°40'0 0.0
2017-Dec-03 08:30N 34°57' E 136°40'0 0.0
2017-Dec-03 08:00N 34°57' E 136°40'0 0.1
2017-Dec-03 07:30N 34°57' E 136°40'0 0.0
2017-Dec-03 07:00N 34°57' E 136°40'0 0.0
2017-Dec-03 06:30N 34°57' E 136°40'0 0.0
2017-Dec-03 06:00N 34°57' E 136°40'0 0.0
2017-Dec-03 05:30N 34°57' E 136°40'0 0.0
2017-Dec-03 05:00N 34°57' E 136°40'0 0.0
2017-Dec-03 04:27N 34°57' E 136°40'0 0.0
2017-Dec-03 04:00N 34°57' E 136°40'0 0.0
2017-Dec-03 03:30N 34°57' E 136°40'0 0.1
2017-Dec-03 03:00N 34°57' E 136°40'0 0.1
2017-Dec-03 02:30N 34°57' E 136°40'0 0.0
2017-Dec-03 02:00N 34°57' E 136°40'0 0.0
2017-Dec-03 01:30N 34°57' E 136°40'0 0.0
2017-Dec-03 01:00N 34°57' E 136°40'0 0.0
2017-Dec-03 00:30N 34°57' E 136°40'0 0.5
2017-Dec-03 00:01N 34°57' E 136°41'510.2
2017-Dec-02 23:30N 34°52' E 136°42'612.1
2017-Dec-02 23:00N 34°47' E 136°45'611.9
2017-Dec-02 22:30N 34°42' E 136°49'812.1
2017-Dec-02 21:51N 34°37' E 136°57'412.3
2017-Dec-02 21:30N 34°34' E 137°00'811.8
2017-Dec-02 20:49N 34°32' E 137°10'412.3
2017-Dec-02 20:30N 34°32' E 137°15'5012.6
2017-Dec-02 16:33N 34°32' E 138°15'111.7
2017-Dec-02 16:29N 34°32' E 138°16'811.9
2017-Dec-02 15:47N 34°32' E 138°26'411.7
2017-Dec-02 15:28N 34°32' E 138°31'711.8
2017-Dec-02 14:55N 34°32' E 138°39'611.7
2017-Dec-02 14:24N 34°32' E 138°46'410.9
2017-Dec-02 14:00N 34°33' E 138°51'510.3
2017-Dec-02 13:30N 34°33' E 138°57'611.4
2017-Dec-02 12:59N 34°37' E 139°03'510.4
2017-Dec-02 12:29N 34°41' E 139°07'510.8
2017-Dec-02 12:00N 34°45' E 139°11'610.6
2017-Dec-02 11:29N 34°49' E 139°16'510.6
2017-Dec-02 11:00N 34°52' E 139°20'611.1
2017-Dec-02 10:29N 34°56' E 139°25'511.2
2017-Dec-02 10:00N 35°00' E 139°30'611.1
2017-Dec-02 09:30N 35°04' E 139°35'612.2
2017-Dec-02 09:00N 35°07' E 139°41'612.7
2017-Dec-02 08:30N 35°12' E 139°46'612.4
2017-Dec-02 08:00N 35°18' E 139°44'612.3
2017-Dec-02 07:30N 35°24' E 139°43'612.0
2017-Dec-02 07:00N 35°29' E 139°48'3 5.3
2017-Dec-02 06:30N 35°31' E 139°46'0 0.0
2017-Dec-02 06:00N 35°31' E 139°46'0 0.0
2017-Dec-02 05:30N 35°31' E 139°46'0 0.0
2017-Dec-02 05:00N 35°31' E 139°46'0 0.0
2017-Dec-02 04:30N 35°31' E 139°46'0 0.0
2017-Dec-02 04:00N 35°31' E 139°46'0 0.0
2017-Dec-02 03:30N 35°31' E 139°46'0 0.0
2017-Dec-02 03:00N 35°31' E 139°46'0 0.0
2017-Dec-02 02:30N 35°31' E 139°46'0 0.0
2017-Dec-02 02:00N 35°31' E 139°46'0 0.0
2017-Dec-02 01:30N 35°31' E 139°46'0 0.0
2017-Dec-02 01:00N 35°31' E 139°46'0 0.0
2017-Dec-02 00:30N 35°31' E 139°46'0 0.0
2017-Dec-02 00:00N 35°31' E 139°46'0 0.0
2017-Dec-01 23:30N 35°31' E 139°46'0 0.0
2017-Dec-01 23:00N 35°31' E 139°46'0 0.0
2017-Dec-01 22:30N 35°31' E 139°46'0 0.0
2017-Dec-01 22:00N 35°31' E 139°46'2 3.8
2017-Dec-01 21:30N 35°30' E 139°48'5 9.2
2017-Dec-01 21:00N 35°25' E 139°46'1 1.9
2017-Dec-01 20:30N 35°25' E 139°46'0 0.0
2017-Dec-01 19:59N 35°25' E 139°46'0 0.0
2017-Dec-01 19:29N 35°25' E 139°46'0 0.0
2017-Dec-01 18:59N 35°25' E 139°46'0 0.0
2017-Dec-01 18:29N 35°25' E 139°46'0 0.0
2017-Dec-01 17:59N 35°25' E 139°46'0 0.0
2017-Dec-01 17:29N 35°25' E 139°46'0 0.0
2017-Dec-01 16:59N 35°25' E 139°46'0 0.0
2017-Dec-01 16:29N 35°25' E 139°46'0 0.0
2017-Dec-01 15:59N 35°25' E 139°46'0 0.0
2017-Dec-01 15:29N 35°25' E 139°46'0 0.0
2017-Dec-01 14:59N 35°25' E 139°46'0 0.0
2017-Dec-01 14:29N 35°25' E 139°46'0 0.0
2017-Dec-01 13:59N 35°25' E 139°46'0 0.0
2017-Dec-01 13:29N 35°25' E 139°46'0 0.0
2017-Dec-01 12:59N 35°25' E 139°46'0 0.0
2017-Dec-01 12:29N 35°25' E 139°46'0 0.0
2017-Dec-01 11:59N 35°25' E 139°46'0 0.0
2017-Dec-01 11:29N 35°25' E 139°46'0 0.0
2017-Dec-01 10:59N 35°25' E 139°46'  
Track history (hours):
 
Tides and Currents Weather Stations Pressure Air Temp Water Temp Dewpoint Dewpoint Depression Visibility Wind Speed Wind Dir Waves Ship Positions

Ryoka Maru No.103

Last reported at 2017-Dec-11 10:47 UTC. Time now 2017-Dec-12 22:00 UTC.
Position N 33°47' E 135°05'.

Length 69 m; draft 4.5 m.

Type: Tanker. MMSI: 431401796.

Date/timePositionNaut miles runAvg speedWind from/ knotsBaromVisibWave heightAir tempDewpointWater temp
2017-Dec-11 10:47N 33°47' E 135°05'613.8
2017-Dec-11 10:22N 33°51' E 135°00'613.9
2017-Dec-11 09:57N 33°55' E 134°56'713.5
2017-Dec-11 09:28N 34°00' E 134°51'613.6
2017-Dec-11 09:00N 34°06' E 134°46'814.0
2017-Dec-11 08:27N 34°12' E 134°41'714.2
2017-Dec-11 07:59N 34°17' E 134°35'713.6
2017-Dec-11 07:27N 34°19' E 134°27'613.5
2017-Dec-11 07:00N 34°21' E 134°20'712.9
2017-Dec-11 06:26N 34°24' E 134°12'8 0.3
2017-Dec-10 00:41N 34°27' E 134°03'1713.3
2017-Dec-09 23:24N 34°22' E 134°23'713.0
2017-Dec-09 22:52N 34°19' E 134°31'513.0
2017-Dec-09 22:30N 34°17' E 134°36'612.1
2017-Dec-09 22:01N 34°13' E 134°41'611.7
2017-Dec-09 21:30N 34°08' E 134°45'612.7
2017-Dec-09 21:00N 34°03' E 134°49'612.8
2017-Dec-09 20:30N 33°57' E 134°54'613.1
2017-Dec-09 20:01N 33°52' E 134°58'104 9.1
2017-Dec-09 08:35N 34°39' E 136°52'113.3
2017-Dec-09 08:30N 34°39' E 136°51'713.6
2017-Dec-09 08:00N 34°45' E 136°47'713.7
2017-Dec-09 07:30N 34°52' E 136°43'612.1
2017-Dec-09 07:01N 34°57' E 136°40'1 2.3
2017-Dec-09 06:30N 34°57' E 136°38'0 0.0
2017-Dec-09 06:01N 34°57' E 136°38'0 0.0
2017-Dec-09 05:30N 34°57' E 136°38'0 0.0
2017-Dec-09 05:00N 34°57' E 136°38'0 0.0
2017-Dec-09 04:31N 34°57' E 136°38'0 0.1
2017-Dec-09 04:00N 34°57' E 136°38'1 2.5
2017-Dec-09 03:31N 34°57' E 136°40'1 1.2
2017-Dec-09 02:58N 34°57' E 136°40'0 0.0
2017-Dec-09 02:25N 34°57' E 136°40'0 0.0
2017-Dec-09 01:58N 34°57' E 136°40'0 0.0
2017-Dec-09 01:28N 34°57' E 136°40'0 0.0
2017-Dec-09 00:58N 34°57' E 136°40'0 0.1
2017-Dec-09 00:28N 34°57' E 136°40'0 0.0
2017-Dec-08 23:58N 34°57' E 136°40'0 0.0
2017-Dec-08 23:28N 34°57' E 136°40'0 0.0
2017-Dec-08 22:58N 34°57' E 136°40'0 0.0
2017-Dec-08 22:28N 34°57' E 136°40'0 0.0
2017-Dec-08 21:58N 34°57' E 136°40'0 0.0
2017-Dec-08 21:28N 34°57' E 136°40'0 0.0
2017-Dec-08 20:58N 34°57' E 136°40'1 1.4
2017-Dec-08 20:30N 34°57' E 136°41'612.5
2017-Dec-08 20:00N 34°51' E 136°45'613.0
2017-Dec-08 19:30N 34°45' E 136°48'612.5
2017-Dec-08 19:00N 34°40' E 136°52'1811.6
2017-Dec-08 17:29N 34°32' E 137°11'812.8
2017-Dec-08 16:50N 34°32' E 137°21'4012.6
2017-Dec-08 13:39N 34°33' E 138°10'411.9
2017-Dec-08 13:16N 34°33' E 138°16'411.6
2017-Dec-08 12:55N 34°33' E 138°21'1110.8
2017-Dec-08 11:54N 34°34' E 138°34'4 9.9
2017-Dec-08 11:28N 34°34' E 138°39'610.9
2017-Dec-08 10:57N 34°35' E 138°46'511.5
2017-Dec-08 10:30N 34°35' E 138°52'612.1
2017-Dec-08 09:59N 34°37' E 138°59'713.8
2017-Dec-08 09:30N 34°43' E 139°04'714.0
2017-Dec-08 09:00N 34°48' E 139°09'813.2
2017-Dec-08 08:22N 34°54' E 139°16'812.5
2017-Dec-08 07:46N 34°58' E 139°24'311.7
2017-Dec-08 07:30N 35°00' E 139°27'611.4
2017-Dec-08 07:00N 35°03' E 139°33'612.9
2017-Dec-08 06:31N 35°06' E 139°40'713.0
2017-Dec-08 06:00N 35°11' E 139°45'612.2
2017-Dec-08 05:30N 35°17' E 139°45'612.6
2017-Dec-08 05:00N 35°23' E 139°42'612.6
2017-Dec-08 04:30N 35°27' E 139°48'912.9
2017-Dec-08 03:50N 35°32' E 139°57'411.6
2017-Dec-08 03:30N 35°32' E 140°02'1 3.0
2017-Dec-08 03:00N 35°32' E 140°03'0 0.0
2017-Dec-08 02:30N 35°32' E 140°03'0 0.0
2017-Dec-08 02:00N 35°32' E 140°03'0 0.0
2017-Dec-08 01:30N 35°32' E 140°03'0 0.0
2017-Dec-08 01:01N 35°32' E 140°03'0 0.0
2017-Dec-08 00:30N 35°32' E 140°03'0 0.0
2017-Dec-08 00:00N 35°32' E 140°03'1 2.9
2017-Dec-07 23:30N 35°32' E 140°02'3 6.8
2017-Dec-07 23:00N 35°31' E 139°58'4 8.1
2017-Dec-07 22:31N 35°28' E 139°54'0 0.1
2017-Dec-07 22:00N 35°28' E 139°54'0 0.0
2017-Dec-07 21:30N 35°28' E 139°54'0 0.0
2017-Dec-07 21:00N 35°28' E 139°54'0 0.0
2017-Dec-07 20:30N 35°28' E 139°54'0 0.0
2017-Dec-07 20:00N 35°28' E 139°54'0 0.3
2017-Dec-07 19:31N 35°28' E 139°54'510.1
2017-Dec-07 19:01N 35°26' E 139°49'612.7
2017-Dec-07 18:31N 35°21' E 139°45'612.3
2017-Dec-07 18:00N 35°15' E 139°47'612.8
2017-Dec-07 17:30N 35°08' E 139°45'612.6
2017-Dec-07 17:00N 35°03' E 139°42'713.9
2017-Dec-07 16:30N 34°58' E 139°35'815.0
2017-Dec-07 15:58N 34°54' E 139°27'815.8
2017-Dec-07 15:28N 34°49' E 139°19'715.2
2017-Dec-07 14:59N 34°45' E 139°12'714.7
2017-Dec-07 14:31N 34°41' E 139°05'714.1
2017-Dec-07 14:00N 34°37' E 138°58'815.0
2017-Dec-07 13:30N 34°34' E 138°49'814.7
2017-Dec-07 12:57N 34°34' E 138°40'714.6
2017-Dec-07 12:28N 34°33' E 138°31'914.1
2017-Dec-07 11:50N 34°33' E 138°20'2413.6
2017-Dec-07 10:05N 34°32' E 137°51'2813.4
2017-Dec-07 07:58N 34°32' E 137°17'2012.3
2017-Dec-07 06:22N 34°38' E 136°54'513.3
2017-Dec-07 06:00N 34°41' E 136°50'713.6
2017-Dec-07 05:30N 34°47' E 136°46'713.3
2017-Dec-07 05:00N 34°53' E 136°42'5 9.8
2017-Dec-07 04:30N 34°57' E 136°39'0 0.7
2017-Dec-07 04:00N 34°57' E 136°38'0 0.0
2017-Dec-07 03:30N 34°57' E 136°38'0 0.0
2017-Dec-07 03:00N 34°57' E 136°38'0 0.1
2017-Dec-07 02:30N 34°57' E 136°38'0 0.1
2017-Dec-07 02:00N 34°57' E 136°38'1 1.8
2017-Dec-07 01:30N 34°57' E 136°39'1 1.5
2017-Dec-07 01:00N 34°57' E 136°40'0 0.0
2017-Dec-07 00:29N 34°57' E 136°40'0 0.0
2017-Dec-06 23:59N 34°57' E 136°40'0 0.1
2017-Dec-06 23:30N 34°57' E 136°40'4 7.3
2017-Dec-06 23:00N 34°54' E 136°42'713.2
2017-Dec-06 22:30N 34°48' E 136°45'712.9
2017-Dec-06 22:00N 34°42' E 136°49'912.8
2017-Dec-06 21:17N 34°36' E 136°58'514.6
2017-Dec-06 20:59N 34°33' E 137°01'  
2017-Dec-04 05:36N 34°37' E 136°54'213.0
2017-Dec-04 05:25N 34°39' E 136°52'512.8
2017-Dec-04 05:00N 34°43' E 136°48'713.4
2017-Dec-04 04:31N 34°49' E 136°45'613.0
2017-Dec-04 04:01N 34°55' E 136°41'3 6.1
2017-Dec-04 03:31N 34°57' E 136°38'0 0.1
2017-Dec-04 03:01N 34°57' E 136°38'0 0.1
2017-Dec-04 02:30N 34°57' E 136°38'0 0.0
2017-Dec-04 02:00N 34°57' E 136°38'0 0.1
2017-Dec-04 01:30N 34°57' E 136°38'0 0.1
2017-Dec-04 01:01N 34°57' E 136°38'0 0.0
2017-Dec-04 00:30N 34°57' E 136°38'0 0.3
2017-Dec-04 00:00N 34°57' E 136°38'2 3.2
2017-Dec-03 23:31N 34°57' E 136°40'0 0.0
2017-Dec-03 23:01N 34°57' E 136°40'0 0.0
2017-Dec-03 22:30N 34°57' E 136°40'0 0.0
2017-Dec-03 22:00N 34°57' E 136°40'0 0.0
2017-Dec-03 21:30N 34°57' E 136°40'0 0.0
2017-Dec-03 21:00N 34°57' E 136°40'0 0.0
2017-Dec-03 20:30N 34°57' E 136°40'0 0.0
2017-Dec-03 20:00N 34°57' E 136°40'0 0.0
2017-Dec-03 19:30N 34°57' E 136°40'0 0.0
2017-Dec-03 19:00N 34°57' E 136°40'0 0.0
2017-Dec-03 18:30N 34°57' E 136°40'0 0.0
2017-Dec-03 18:00N 34°57' E 136°40'0 0.0
2017-Dec-03 17:30N 34°57' E 136°40'0 0.0
2017-Dec-03 17:00N 34°57' E 136°40'0 0.0
2017-Dec-03 16:30N 34°57' E 136°40'0 0.0
2017-Dec-03 16:00N 34°57' E 136°40'0 0.0
2017-Dec-03 15:30N 34°57' E 136°40'0 0.1
2017-Dec-03 15:00N 34°57' E 136°40'0 0.0
2017-Dec-03 14:30N 34°57' E 136°40'0 0.0
2017-Dec-03 14:00N 34°57' E 136°40'0 0.0
2017-Dec-03 13:30N 34°57' E 136°40'0 0.0
2017-Dec-03 13:00N 34°57' E 136°40'0 0.0
2017-Dec-03 12:30N 34°57' E 136°40'0 0.0
2017-Dec-03 12:00N 34°57' E 136°40'0 0.0
2017-Dec-03 11:27N 34°57' E 136°40'0 0.0
2017-Dec-03 11:00N 34°57' E 136°40'0 0.0
2017-Dec-03 10:30N 34°57' E 136°40'0 0.0
2017-Dec-03 10:00N 34°57' E 136°40'0 0.0
2017-Dec-03 09:30N 34°57' E 136°40'0 0.0
2017-Dec-03 09:00N 34°57' E 136°40'0 0.0
2017-Dec-03 08:30N 34°57' E 136°40'0 0.0
2017-Dec-03 08:00N 34°57' E 136°40'0 0.1
2017-Dec-03 07:30N 34°57' E 136°40'0 0.0
2017-Dec-03 07:00N 34°57' E 136°40'0 0.0
2017-Dec-03 06:30N 34°57' E 136°40'0 0.0
2017-Dec-03 06:00N 34°57' E 136°40'0 0.0
2017-Dec-03 05:30N 34°57' E 136°40'0 0.0
2017-Dec-03 05:00N 34°57' E 136°40'0 0.0
2017-Dec-03 04:27N 34°57' E 136°40'0 0.0
2017-Dec-03 04:00N 34°57' E 136°40'0 0.0
2017-Dec-03 03:30N 34°57' E 136°40'0 0.1
2017-Dec-03 03:00N 34°57' E 136°40'0 0.1
2017-Dec-03 02:30N 34°57' E 136°40'0 0.0
2017-Dec-03 02:00N 34°57' E 136°40'0 0.0
2017-Dec-03 01:30N 34°57' E 136°40'0 0.0
2017-Dec-03 01:00N 34°57' E 136°40'0 0.0
2017-Dec-03 00:30N 34°57' E 136°40'0 0.5
2017-Dec-03 00:01N 34°57' E 136°41'510.2
2017-Dec-02 23:30N 34°52' E 136°42'612.1
2017-Dec-02 23:00N 34°47' E 136°45'611.9
2017-Dec-02 22:30N 34°42' E 136°49'812.1
2017-Dec-02 21:51N 34°37' E 136°57'412.3
2017-Dec-02 21:30N 34°34' E 137°00'811.8
2017-Dec-02 20:49N 34°32' E 137°10'412.3
2017-Dec-02 20:30N 34°32' E 137°15'5012.6
2017-Dec-02 16:33N 34°32' E 138°15'111.7
2017-Dec-02 16:29N 34°32' E 138°16'811.9
2017-Dec-02 15:47N 34°32' E 138°26'411.7
2017-Dec-02 15:28N 34°32' E 138°31'711.8
2017-Dec-02 14:55N 34°32' E 138°39'611.7
2017-Dec-02 14:24N 34°32' E 138°46'410.9
2017-Dec-02 14:00N 34°33' E 138°51'510.3
2017-Dec-02 13:30N 34°33' E 138°57'611.4
2017-Dec-02 12:59N 34°37' E 139°03'510.4
2017-Dec-02 12:29N 34°41' E 139°07'510.8
2017-Dec-02 12:00N 34°45' E 139°11'610.6
2017-Dec-02 11:29N 34°49' E 139°16'510.6
2017-Dec-02 11:00N 34°52' E 139°20'611.1
2017-Dec-02 10:29N 34°56' E 139°25'511.2
2017-Dec-02 10:00N 35°00' E 139°30'611.1
2017-Dec-02 09:30N 35°04' E 139°35'612.2
2017-Dec-02 09:00N 35°07' E 139°41'612.7
2017-Dec-02 08:30N 35°12' E 139°46'612.4
2017-Dec-02 08:00N 35°18' E 139°44'612.3
2017-Dec-02 07:30N 35°24' E 139°43'612.0
2017-Dec-02 07:00N 35°29' E 139°48'3 5.3
2017-Dec-02 06:30N 35°31' E 139°46'0 0.0
2017-Dec-02 06:00N 35°31' E 139°46'0 0.0
2017-Dec-02 05:30N 35°31' E 139°46'0 0.0
2017-Dec-02 05:00N 35°31' E 139°46'0 0.0
2017-Dec-02 04:30N 35°31' E 139°46'0 0.0
2017-Dec-02 04:00N 35°31' E 139°46'0 0.0
2017-Dec-02 03:30N 35°31' E 139°46'0 0.0
2017-Dec-02 03:00N 35°31' E 139°46'0 0.0
2017-Dec-02 02:30N 35°31' E 139°46'0 0.0
2017-Dec-02 02:00N 35°31' E 139°46'0 0.0
2017-Dec-02 01:30N 35°31' E 139°46'0 0.0
2017-Dec-02 01:00N 35°31' E 139°46'0 0.0
2017-Dec-02 00:30N 35°31' E 139°46'0 0.0
2017-Dec-02 00:00N 35°31' E 139°46'0 0.0
2017-Dec-01 23:30N 35°31' E 139°46'0 0.0
2017-Dec-01 23:00N 35°31' E 139°46'0 0.0
2017-Dec-01 22:30N 35°31' E 139°46'0 0.0
2017-Dec-01 22:00N 35°31' E 139°46'2 3.8
2017-Dec-01 21:30N 35°30' E 139°48'5 9.2
2017-Dec-01 21:00N 35°25' E 139°46'1 1.9
2017-Dec-01 20:30N 35°25' E 139°46'0 0.0
2017-Dec-01 19:59N 35°25' E 139°46'0 0.0
2017-Dec-01 19:29N 35°25' E 139°46'0 0.0
2017-Dec-01 18:59N 35°25' E 139°46'0 0.0
2017-Dec-01 18:29N 35°25' E 139°46'0 0.0
2017-Dec-01 17:59N 35°25' E 139°46'0 0.0
2017-Dec-01 17:29N 35°25' E 139°46'0 0.0
2017-Dec-01 16:59N 35°25' E 139°46'0 0.0
2017-Dec-01 16:29N 35°25' E 139°46'0 0.0
2017-Dec-01 15:59N 35°25' E 139°46'0 0.0
2017-Dec-01 15:29N 35°25' E 139°46'0 0.0
2017-Dec-01 14:59N 35°25' E 139°46'0 0.0
2017-Dec-01 14:29N 35°25' E 139°46'0 0.0
2017-Dec-01 13:59N 35°25' E 139°46'0 0.0
2017-Dec-01 13:29N 35°25' E 139°46'0 0.0
2017-Dec-01 12:59N 35°25' E 139°46'0 0.0
2017-Dec-01 12:29N 35°25' E 139°46'0 0.0
2017-Dec-01 11:59N 35°25' E 139°46'0 0.0
2017-Dec-01 11:29N 35°25' E 139°46'0 0.0
2017-Dec-01 10:59N 35°25' E 139°46'  

Dump ship's entire track history